createdAt,value
2018-03-21T00:02:01.746Z,89.00
2018-03-21T00:04:29.263Z,90.00
2018-03-21T00:06:57.519Z,90.40
2018-03-21T00:09:25.065Z,90.20
2018-03-21T00:11:52.547Z,90.40
2018-03-21T00:14:20.237Z,90.40
2018-03-21T00:16:47.775Z,90.60
2018-03-21T00:19:15.314Z,90.80
2018-03-21T00:21:42.796Z,91.00
2018-03-21T00:24:10.323Z,91.20
2018-03-21T00:26:37.816Z,91.40
2018-03-21T00:29:05.316Z,91.40
2018-03-21T00:31:32.808Z,91.70
2018-03-21T00:34:00.324Z,91.80
2018-03-21T00:36:27.811Z,91.90
2018-03-21T00:38:56.111Z,92.30
2018-03-21T00:41:24.368Z,92.30
2018-03-21T00:43:51.888Z,92.30
2018-03-21T00:46:19.395Z,92.20
2018-03-21T00:48:46.915Z,92.30
2018-03-21T00:51:15.178Z,92.60
2018-03-21T00:53:42.744Z,92.60
2018-03-21T00:56:10.238Z,92.60
2018-03-21T00:58:38.495Z,92.80
2018-03-21T01:01:06.811Z,92.90
2018-03-21T01:03:34.293Z,92.90
2018-03-21T01:06:02.573Z,93.40
2018-03-21T01:08:30.088Z,93.40
2018-03-21T01:10:57.608Z,93.60
2018-03-21T01:13:25.813Z,93.70
2018-03-21T01:15:53.360Z,93.90
2018-03-21T01:18:20.915Z,94.00
2018-03-21T01:20:48.391Z,94.00
2018-03-21T01:23:15.875Z,94.00
2018-03-21T01:25:43.385Z,94.20
2018-03-21T01:28:10.877Z,94.20
2018-03-21T01:30:38.391Z,94.70
2018-03-21T01:33:05.890Z,94.40
2018-03-21T01:35:34.181Z,94.40
2018-03-21T01:38:01.668Z,94.40
2018-03-21T01:40:29.183Z,94.40
2018-03-21T01:42:56.668Z,94.50
2018-03-21T01:45:24.200Z,94.60
2018-03-21T01:47:51.744Z,94.70
2018-03-21T01:50:19.266Z,94.90
2018-03-21T01:52:46.756Z,95.10
2018-03-21T01:55:14.268Z,95.10
2018-03-21T01:57:41.767Z,95.10
2018-03-21T02:00:09.288Z,95.20
2018-03-21T02:02:37.560Z,95.60
2018-03-21T02:05:05.851Z,95.70
2018-03-21T02:07:33.336Z,95.70
2018-03-21T02:10:01.615Z,95.90
2018-03-21T02:12:29.099Z,95.90
2018-03-21T02:14:57.405Z,96.40
2018-03-21T02:17:24.928Z,96.40
2018-03-21T02:19:52.446Z,96.70
2018-03-21T02:22:19.940Z,96.70
2018-03-21T02:24:47.457Z,96.70
2018-03-21T02:27:14.958Z,97.10
2018-03-21T02:29:42.477Z,97.30
2018-03-21T02:32:09.964Z,97.70
2018-03-21T02:34:37.483Z,97.80
2018-03-21T02:37:04.973Z,98.10
2018-03-21T02:39:32.501Z,98.60
2018-03-21T02:42:00.801Z,98.70
2018-03-21T02:44:28.329Z,98.70
2018-03-21T02:46:55.813Z,98.80
2018-03-21T02:49:23.336Z,99.00
2018-03-21T02:51:50.877Z,99.10
2018-03-21T02:54:19.160Z,99.50
2018-03-21T02:56:47.420Z,99.60
2018-03-21T03:02:05.394Z,99.90
2018-03-21T03:04:32.935Z,99.90
2018-03-21T03:07:00.424Z,99.90
2018-03-21T03:09:27.969Z,99.90
2018-03-21T03:11:55.495Z,99.90
2018-03-21T03:14:23.022Z,99.90
2018-03-21T03:16:51.581Z,99.90
2018-03-21T03:19:19.841Z,99.90
2018-03-21T03:21:47.365Z,99.90
2018-03-21T03:24:14.882Z,99.90
2018-03-21T03:26:42.428Z,99.90
2018-03-21T03:29:09.948Z,99.90
2018-03-21T03:31:37.438Z,99.90
2018-03-21T03:34:05.705Z,99.90
2018-03-21T03:36:33.224Z,99.90
2018-03-21T03:39:00.724Z,99.90
2018-03-21T03:41:28.245Z,99.90
2018-03-21T03:43:55.780Z,99.90
2018-03-21T03:46:23.278Z,99.90
2018-03-21T03:48:51.536Z,99.90
2018-03-21T03:51:19.080Z,99.90
2018-03-21T03:53:46.572Z,99.90
2018-03-21T03:56:14.104Z,99.90
2018-03-21T03:58:41.596Z,99.90
2018-03-21T04:01:09.144Z,99.90
2018-03-21T04:03:36.646Z,99.90
2018-03-21T04:06:04.168Z,99.90
2018-03-21T04:08:32.426Z,99.90
2018-03-21T04:10:59.948Z,99.90
2018-03-21T04:13:27.442Z,99.90
2018-03-21T04:15:54.968Z,99.90
2018-03-21T04:18:23.237Z,99.90
2018-03-21T04:20:50.765Z,99.90
2018-03-21T04:23:18.292Z,99.90
2018-03-21T04:25:45.833Z,99.90
2018-03-21T04:28:13.357Z,99.90
2018-03-21T04:30:40.855Z,99.90
2018-03-21T04:33:08.409Z,99.90
2018-03-21T04:35:35.903Z,99.90
2018-03-21T04:38:03.427Z,99.90
2018-03-21T04:40:31.710Z,99.90
2018-03-21T04:42:59.236Z,99.90
2018-03-21T04:45:26.732Z,99.90
2018-03-21T04:47:54.263Z,99.90
2018-03-21T04:50:21.769Z,99.90
2018-03-21T04:52:49.291Z,99.90
2018-03-21T04:55:16.819Z,99.90
2018-03-21T04:57:44.340Z,99.90
2018-03-21T05:00:11.832Z,99.90
2018-03-21T05:02:39.364Z,99.90
2018-03-21T05:05:07.158Z,99.90
2018-03-21T05:07:34.680Z,99.90
2018-03-21T05:10:02.175Z,99.90
2018-03-21T05:12:30.521Z,99.90
2018-03-21T05:14:58.048Z,99.90
2018-03-21T05:17:26.348Z,99.90
2018-03-21T05:19:53.865Z,99.90
2018-03-21T05:22:21.355Z,99.90
2018-03-21T05:24:48.884Z,99.90
2018-03-21T05:27:17.264Z,99.90
2018-03-21T05:29:44.783Z,99.90
2018-03-21T05:32:12.322Z,99.90
2018-03-21T05:34:39.812Z,99.90
2018-03-21T05:37:07.297Z,99.90
2018-03-21T05:39:34.851Z,99.90
2018-03-21T05:42:03.270Z,99.90
2018-03-21T05:44:31.037Z,99.90
2018-03-21T05:46:58.532Z,99.90
2018-03-21T05:49:26.081Z,99.90
2018-03-21T05:51:53.603Z,99.90
2018-03-21T05:54:21.144Z,99.90
2018-03-21T05:57:11.192Z,99.90
2018-03-21T05:59:57.959Z,99.90
2018-03-21T06:02:27.354Z,99.90
2018-03-21T06:04:54.886Z,99.90
2018-03-21T06:07:22.377Z,99.90
2018-03-21T06:09:49.958Z,99.90
2018-03-21T06:12:18.184Z,99.90
2018-03-21T06:14:45.707Z,99.90
2018-03-21T06:17:13.217Z,99.90
2018-03-21T06:19:40.744Z,99.90
2018-03-21T06:22:08.249Z,99.90
2018-03-21T06:24:35.807Z,99.90
2018-03-21T06:27:03.341Z,99.90
2018-03-21T06:29:31.633Z,99.90
2018-03-21T06:31:59.131Z,99.90
2018-03-21T06:34:26.671Z,99.90
2018-03-21T06:36:54.963Z,99.90
2018-03-21T06:39:22.502Z,99.90
2018-03-21T06:41:50.017Z,99.90
2018-03-21T06:44:17.564Z,99.90
2018-03-21T06:46:45.829Z,99.90
2018-03-21T06:49:13.361Z,99.90
2018-03-21T06:51:40.881Z,99.90
2018-03-21T06:54:08.426Z,99.90
2018-03-21T06:56:35.925Z,99.70
2018-03-21T06:59:03.446Z,98.80
2018-03-21T07:01:30.936Z,98.80
2018-03-21T07:03:59.238Z,97.20
2018-03-21T07:06:26.735Z,97.20
2018-03-21T07:08:54.262Z,97.10
2018-03-21T07:11:21.749Z,96.90
2018-03-21T07:14:00.993Z,95.90
2018-03-21T07:16:38.411Z,95.60
2018-03-21T07:19:05.972Z,92.00
2018-03-21T07:21:33.456Z,83.20
2018-03-21T07:24:00.988Z,73.90
2018-03-21T07:26:28.488Z,63.20
2018-03-21T07:28:56.019Z,55.10
2018-03-21T07:31:23.520Z,51.40
2018-03-21T07:33:51.215Z,48.40
2018-03-21T07:36:18.709Z,47.20
2018-03-21T07:38:46.224Z,46.60
2018-03-21T07:41:13.728Z,46.20
2018-03-21T07:43:41.257Z,41.50
2018-03-21T07:46:08.752Z,41.40
2018-03-21T07:48:36.269Z,41.40
2018-03-21T07:51:03.762Z,40.10
2018-03-21T07:53:31.308Z,38.10
2018-03-21T07:55:59.580Z,38.10
2018-03-21T07:58:27.105Z,37.80
2018-03-21T08:00:54.592Z,35.10
2018-03-21T08:03:22.123Z,36.20
2018-03-21T08:05:50.373Z,38.00
2018-03-21T08:08:17.949Z,37.90
2018-03-21T08:10:45.420Z,36.30
2018-03-21T08:13:12.931Z,34.90
2018-03-21T08:15:41.229Z,35.40
2018-03-21T08:18:08.749Z,36.00
2018-03-21T08:20:36.336Z,35.70
2018-03-21T08:23:03.841Z,38.10
2018-03-21T08:25:31.372Z,36.80
2018-03-21T08:27:58.912Z,37.10
2018-03-21T08:30:26.401Z,39.70
2018-03-21T08:32:53.928Z,37.90
2018-03-21T08:35:22.226Z,39.00
2018-03-21T08:37:49.716Z,39.00
2018-03-21T08:40:17.253Z,37.00
2018-03-21T08:42:45.524Z,34.00
2018-03-21T08:45:13.088Z,34.00
2018-03-21T08:47:40.580Z,34.10
2018-03-21T08:50:08.880Z,35.10
2018-03-21T08:52:37.132Z,34.70
2018-03-21T08:55:04.766Z,34.60
2018-03-21T08:57:32.276Z,37.50
2018-03-21T08:59:59.801Z,38.90
2018-03-21T09:02:27.288Z,41.10
2018-03-21T09:04:54.832Z,38.60
2018-03-21T09:07:22.363Z,39.00
2018-03-21T09:09:49.912Z,40.30
2018-03-21T09:12:17.413Z,46.60
2018-03-21T09:14:44.932Z,51.50
2018-03-21T09:17:12.433Z,57.80
2018-03-21T09:19:39.966Z,63.50
2018-03-21T09:22:08.221Z,71.70
2018-03-21T09:24:35.751Z,71.80
2018-03-21T09:27:03.240Z,76.30
2018-03-21T09:29:30.751Z,78.10
2018-03-21T09:31:59.047Z,82.60
2018-03-21T09:34:27.317Z,82.80
2018-03-21T09:36:55.612Z,85.60
2018-03-21T09:39:23.133Z,85.50
2018-03-21T09:41:50.647Z,84.50
2018-03-21T09:44:18.169Z,87.40
2018-03-21T09:46:45.687Z,87.70
2018-03-21T09:49:13.204Z,88.40
2018-03-21T09:51:40.698Z,88.00
2018-03-21T09:54:08.233Z,87.00
2018-03-21T09:56:36.496Z,90.20
2018-03-21T09:59:04.020Z,90.10
2018-03-21T10:01:31.538Z,89.10
2018-03-21T10:03:59.064Z,88.50
2018-03-21T10:06:26.696Z,90.10
2018-03-21T10:08:54.229Z,90.40
2018-03-21T10:11:21.727Z,90.70
2018-03-21T10:13:49.248Z,90.00
2018-03-21T10:16:16.736Z,88.50
2018-03-21T10:18:44.260Z,88.70
2018-03-21T10:21:12.545Z,88.40
2018-03-21T10:23:40.882Z,89.60
2018-03-21T10:26:08.366Z,89.60
2018-03-21T10:28:35.956Z,89.20
2018-03-21T10:31:03.473Z,87.20
2018-03-21T10:33:30.996Z,84.70
2018-03-21T10:35:58.485Z,82.60
2018-03-21T10:38:26.018Z,81.30
2018-03-21T10:40:53.525Z,79.40
2018-03-21T10:43:21.064Z,80.90
2018-03-21T10:45:48.559Z,81.30
2018-03-21T10:48:16.081Z,79.90
2018-03-21T10:50:43.579Z,79.90
2018-03-21T10:53:11.106Z,80.10
2018-03-21T10:55:39.369Z,82.30
2018-03-21T10:58:06.897Z,82.20
2018-03-21T11:00:34.390Z,81.00
2018-03-21T11:03:02.723Z,80.20
2018-03-21T11:05:30.988Z,80.30
2018-03-21T11:07:58.517Z,80.30
2018-03-21T11:10:26.186Z,80.60
2018-03-21T11:12:53.722Z,78.60
2018-03-21T11:15:21.980Z,77.60
2018-03-21T11:17:49.508Z,77.60
2018-03-21T11:20:17.012Z,76.20
2018-03-21T11:22:44.536Z,77.80
2018-03-21T11:25:12.495Z,77.10
2018-03-21T11:27:40.010Z,76.60
2018-03-21T11:30:07.501Z,76.10
2018-03-21T11:32:35.000Z,76.00
2018-03-21T11:35:02.608Z,73.40
2018-03-21T11:37:30.112Z,74.10
2018-03-21T11:39:57.669Z,72.60
2018-03-21T11:42:25.163Z,72.50
2018-03-21T11:44:52.690Z,71.40
2018-03-21T11:47:20.194Z,70.70
2018-03-21T11:49:47.735Z,70.60
2018-03-21T11:52:15.992Z,72.70
2018-03-21T11:54:46.437Z,72.60
2018-03-21T11:57:13.924Z,72.40
2018-03-21T11:59:41.446Z,72.10
2018-03-21T12:02:08.936Z,70.90
2018-03-21T12:04:36.466Z,70.60
2018-03-21T12:07:03.970Z,70.80
2018-03-21T12:09:31.496Z,72.20
2018-03-21T12:11:59.837Z,74.30
2018-03-21T12:14:27.388Z,74.30
2018-03-21T12:16:54.880Z,72.80
2018-03-21T12:19:22.416Z,72.10
2018-03-21T12:21:50.008Z,68.10
2018-03-21T12:24:17.544Z,68.60
2018-03-21T12:26:45.801Z,72.80
2018-03-21T12:29:13.336Z,72.80
2018-03-21T12:31:40.828Z,72.70
2018-03-21T12:34:08.348Z,72.50
2018-03-21T12:36:36.694Z,74.20
2018-03-21T12:39:04.248Z,74.20
2018-03-21T12:41:31.740Z,72.00
2018-03-21T12:43:59.266Z,70.20
2018-03-21T12:46:26.884Z,70.90
2018-03-21T12:48:54.436Z,70.70
2018-03-21T12:51:22.006Z,71.70
2018-03-21T12:53:49.528Z,72.70
2018-03-21T12:56:17.126Z,71.70
2018-03-21T12:58:44.596Z,70.10
2018-03-21T13:01:12.088Z,73.30
2018-03-21T13:03:39.611Z,74.70
2018-03-21T13:06:07.105Z,71.50
2018-03-21T13:08:35.392Z,72.80
2018-03-21T13:11:03.617Z,72.90
2018-03-21T13:13:31.209Z,71.80
2018-03-21T13:15:58.712Z,72.40
2018-03-21T13:18:27.000Z,74.90
2018-03-21T13:20:55.268Z,76.80
2018-03-21T13:23:22.800Z,76.20
2018-03-21T13:25:50.300Z,76.60
2018-03-21T13:28:17.825Z,77.40
2018-03-21T13:30:45.316Z,77.60
2018-03-21T13:33:12.882Z,77.50
2018-03-21T13:35:40.407Z,78.40
2018-03-21T13:38:07.940Z,80.00
2018-03-21T13:40:35.434Z,80.40
2018-03-21T13:43:02.966Z,78.60
2018-03-21T13:45:30.453Z,78.80
2018-03-21T13:47:58.004Z,79.10
2018-03-21T13:50:25.521Z,80.00
2018-03-21T13:52:53.048Z,78.80
2018-03-21T13:55:20.549Z,79.70
2018-03-21T13:57:48.136Z,78.10
2018-03-21T14:00:15.583Z,77.20
2018-03-21T14:02:43.116Z,77.40
2018-03-21T14:05:11.382Z,77.70
2018-03-21T14:07:38.920Z,77.70
2018-03-21T14:10:06.410Z,77.80
2018-03-21T14:12:33.948Z,76.80
2018-03-21T14:15:01.493Z,77.20
2018-03-21T14:17:29.812Z,78.30
2018-03-21T14:19:57.324Z,78.30
2018-03-21T14:22:24.809Z,77.20
2018-03-21T14:24:52.327Z,75.90
2018-03-21T14:27:19.876Z,78.50
2018-03-21T14:29:48.151Z,75.30
2018-03-21T14:32:16.437Z,75.60
2018-03-21T14:34:44.000Z,75.60
2018-03-21T14:37:11.517Z,74.80
2018-03-21T14:39:39.051Z,74.90
2018-03-21T14:42:06.613Z,76.00
2018-03-21T14:44:34.140Z,77.00
2018-03-21T14:47:01.678Z,77.10
2018-03-21T14:49:29.323Z,77.20
2018-03-21T14:52:12.729Z,77.60
2018-03-21T14:54:40.249Z,76.30
2018-03-21T14:57:07.781Z,76.40
2018-03-21T14:59:35.296Z,76.70
2018-03-21T15:02:02.788Z,77.60
2018-03-21T15:04:31.068Z,76.70
2018-03-21T15:06:58.565Z,76.60
2018-03-21T15:09:26.101Z,77.10
2018-03-21T15:11:54.380Z,77.30
2018-03-21T15:14:21.916Z,79.00
2018-03-21T15:16:49.637Z,78.10
2018-03-21T15:19:17.172Z,78.50
2018-03-21T15:21:44.665Z,79.40
2018-03-21T15:24:12.184Z,79.30
2018-03-21T15:26:39.677Z,80.10
2018-03-21T15:29:07.192Z,80.50
2018-03-21T15:31:34.685Z,80.70
2018-03-21T15:34:03.690Z,81.50
2018-03-21T15:36:31.963Z,81.20
2018-03-21T15:38:59.526Z,81.10
2018-03-21T15:41:27.811Z,82.20
2018-03-21T15:43:55.344Z,82.20
2018-03-21T15:46:22.845Z,83.00
2018-03-21T15:48:50.372Z,83.40
2018-03-21T15:51:17.913Z,83.50
2018-03-21T15:53:45.397Z,84.40
2018-03-21T15:56:13.670Z,83.20
2018-03-21T15:58:41.213Z,83.20
2018-03-21T16:01:08.706Z,83.20
2018-03-21T16:03:36.232Z,82.80
2018-03-21T16:06:03.728Z,82.50
2018-03-21T16:08:31.262Z,82.80
2018-03-21T16:10:59.168Z,83.00
2018-03-21T16:13:26.729Z,83.10
2018-03-21T16:15:54.227Z,82.70
2018-03-21T16:18:21.776Z,82.70
2018-03-21T16:20:49.270Z,82.40
2018-03-21T16:23:16.794Z,82.30
2018-03-21T16:25:45.056Z,81.40
2018-03-21T16:28:12.576Z,81.40
2018-03-21T16:30:40.104Z,82.10
2018-03-21T16:33:08.417Z,80.20
2018-03-21T16:35:35.917Z,80.90
2018-03-21T16:38:03.493Z,80.10
2018-03-21T16:40:30.986Z,79.20
2018-03-21T16:42:58.501Z,79.40
2018-03-21T16:45:26.015Z,79.30
2018-03-21T16:47:53.625Z,79.10
2018-03-21T16:50:21.121Z,79.20
2018-03-21T16:52:48.670Z,79.50
2018-03-21T16:55:16.166Z,79.80
2018-03-21T16:57:43.669Z,79.50
2018-03-21T17:00:11.217Z,79.80
2018-03-21T17:02:38.748Z,79.70
2018-03-21T17:05:06.276Z,80.00
2018-03-21T17:07:33.761Z,80.20
2018-03-21T17:10:01.315Z,80.90
2018-03-21T17:12:28.820Z,81.40
2018-03-21T17:14:56.404Z,81.60
2018-03-21T17:17:23.902Z,82.10
2018-03-21T17:19:52.198Z,82.80
2018-03-21T17:22:19.686Z,82.80
2018-03-21T17:24:47.221Z,83.00
2018-03-21T17:27:14.727Z,83.20
2018-03-21T17:29:42.245Z,83.10
2018-03-21T17:32:09.731Z,82.80
2018-03-21T17:34:37.245Z,82.70
2018-03-21T17:37:04.772Z,82.70
2018-03-21T17:39:32.331Z,83.20
2018-03-21T17:41:59.857Z,84.70
2018-03-21T17:44:27.381Z,84.80
2018-03-21T17:46:54.877Z,85.60
2018-03-21T17:49:22.417Z,85.80
2018-03-21T17:51:49.927Z,86.10
2018-03-21T17:54:18.231Z,86.70
2018-03-21T17:56:45.760Z,86.70
2018-03-21T17:59:17.804Z,87.10
2018-03-21T18:01:46.254Z,88.60
2018-03-21T18:04:14.540Z,89.20
2018-03-21T18:06:42.072Z,89.20
2018-03-21T18:09:09.574Z,90.00
2018-03-21T18:11:37.863Z,90.50
2018-03-21T18:14:05.354Z,90.40
2018-03-21T18:16:32.914Z,90.90
2018-03-21T18:19:01.175Z,91.40
2018-03-21T18:21:28.714Z,91.40
2018-03-21T18:23:56.974Z,91.90
2018-03-21T18:26:24.491Z,91.90
2018-03-21T18:28:52.068Z,92.00
2018-03-21T18:31:19.595Z,91.90
2018-03-21T18:33:47.088Z,92.20
2018-03-21T18:36:14.620Z,92.30
2018-03-21T18:38:42.197Z,92.40
2018-03-21T18:41:10.488Z,92.30
2018-03-21T18:43:38.756Z,92.50
2018-03-21T18:46:06.273Z,92.50
2018-03-21T18:48:33.770Z,92.70
2018-03-21T18:51:01.325Z,93.10
2018-03-21T18:53:28.817Z,93.30
2018-03-21T18:55:56.345Z,93.70
2018-03-21T18:58:23.846Z,93.90
2018-03-21T19:00:51.428Z,94.10
2018-03-21T19:03:18.982Z,94.50
2018-03-21T19:05:47.411Z,94.70
2018-03-21T19:08:15.024Z,94.70
2018-03-21T19:10:43.332Z,95.10
2018-03-21T19:13:10.837Z,95.10
2018-03-21T19:15:38.408Z,95.30
2018-03-21T19:18:05.901Z,95.20
2018-03-21T19:20:33.444Z,95.20
2018-03-21T19:23:00.966Z,95.50
2018-03-21T19:25:33.282Z,96.00
2018-03-21T19:28:00.774Z,95.90
2018-03-21T19:30:28.300Z,96.00
2018-03-21T19:32:56.567Z,96.30
2018-03-21T19:35:24.188Z,96.30
2018-03-21T19:37:51.712Z,96.30
2018-03-21T19:40:19.233Z,96.30
2018-03-21T19:42:46.773Z,96.20
2018-03-21T19:45:15.078Z,96.30
2018-03-21T19:47:42.631Z,96.30
2018-03-21T19:50:13.039Z,96.30
2018-03-21T19:52:40.609Z,96.30
2018-03-21T19:55:08.097Z,96.50
2018-03-21T19:57:35.610Z,96.90
2018-03-21T20:00:03.192Z,97.20
2018-03-21T20:02:30.738Z,97.50
2018-03-21T20:04:59.055Z,97.80
2018-03-21T20:07:26.628Z,97.70
2018-03-21T20:09:54.161Z,97.80
2018-03-21T20:12:22.431Z,98.20
2018-03-21T20:14:49.973Z,98.20
2018-03-21T20:17:17.483Z,98.30
2018-03-21T20:19:45.812Z,98.40
2018-03-21T20:22:13.327Z,98.40
2018-03-21T20:24:40.856Z,98.60
2018-03-21T20:27:08.349Z,98.60
2018-03-21T20:29:35.878Z,98.60
2018-03-21T20:32:03.548Z,98.50
2018-03-21T20:34:31.122Z,98.50
2018-03-21T20:36:58.700Z,98.40
2018-03-21T20:39:26.993Z,98.50
2018-03-21T20:41:54.500Z,98.40
2018-03-21T20:44:22.021Z,98.30
2018-03-21T20:46:49.512Z,98.50
2018-03-21T20:49:17.065Z,98.60
2018-03-21T20:51:45.320Z,98.80
2018-03-21T20:54:12.844Z,98.80
2018-03-21T20:56:40.337Z,98.70
2018-03-21T20:59:07.860Z,98.70
2018-03-21T21:01:35.352Z,98.80
2018-03-21T21:04:02.885Z,98.90
2018-03-21T21:06:30.380Z,99.20
2018-03-21T21:08:57.912Z,99.30
2018-03-21T21:11:25.410Z,99.50
2018-03-21T21:13:52.953Z,99.40
2018-03-21T21:16:21.556Z,99.60
2018-03-21T21:18:51.965Z,99.60
2018-03-21T21:21:19.448Z,99.60
2018-03-21T21:23:46.992Z,99.60
2018-03-21T21:26:15.537Z,99.60
2018-03-21T21:28:43.092Z,99.60
2018-03-21T21:31:11.385Z,99.80
2018-03-21T21:33:38.917Z,99.80
2018-03-21T21:36:07.180Z,99.90
2018-03-21T21:38:34.709Z,99.90
2018-03-21T21:41:02.200Z,99.90
2018-03-21T21:43:29.733Z,99.90
2018-03-21T21:45:57.224Z,99.90
2018-03-21T21:48:24.741Z,99.90
2018-03-21T21:50:52.237Z,99.90
2018-03-21T21:53:20.548Z,99.90
2018-03-21T21:55:48.059Z,99.90
2018-03-21T21:58:15.589Z,99.90
2018-03-21T22:00:43.093Z,99.90
2018-03-21T22:03:10.631Z,99.90
2018-03-21T22:05:38.141Z,99.90
2018-03-21T22:08:05.672Z,99.90
2018-03-21T22:10:33.186Z,99.90
2018-03-21T22:13:00.724Z,99.90
2018-03-21T22:15:28.224Z,99.90
2018-03-21T22:17:55.744Z,99.90
2018-03-21T22:20:24.010Z,99.90
2018-03-21T22:22:51.536Z,99.90
2018-03-21T22:25:19.028Z,99.90
2018-03-21T22:27:46.569Z,99.90
2018-03-21T22:30:14.072Z,99.90
2018-03-21T22:32:41.604Z,99.90
2018-03-21T22:35:09.099Z,99.90
2018-03-21T22:37:36.632Z,99.90
2018-03-21T22:40:04.892Z,99.90
2018-03-21T22:42:32.453Z,99.90
2018-03-21T22:44:59.941Z,99.90
2018-03-21T22:47:27.448Z,99.90
2018-03-21T22:49:54.979Z,99.90
2018-03-21T22:52:22.481Z,99.90
2018-03-21T22:54:50.763Z,99.90
2018-03-21T22:57:18.252Z,99.90
2018-03-21T22:59:45.805Z,99.90
2018-03-21T23:02:13.312Z,99.90
2018-03-21T23:04:40.837Z,99.90
2018-03-21T23:07:08.336Z,99.90
2018-03-21T23:09:35.908Z,99.90
2018-03-21T23:12:03.413Z,99.90
2018-03-21T23:14:30.941Z,99.90
2018-03-21T23:16:59.231Z,99.90
2018-03-21T23:19:27.525Z,99.90
2018-03-21T23:21:55.784Z,99.90
2018-03-21T23:24:23.304Z,99.90
2018-03-21T23:26:50.796Z,99.90
2018-03-21T23:29:18.312Z,99.90
2018-03-21T23:31:46.572Z,99.90
2018-03-21T23:34:14.092Z,99.90
2018-03-21T23:36:41.597Z,99.90
2018-03-21T23:39:09.261Z,99.90
2018-03-21T23:41:36.760Z,99.90
2018-03-21T23:44:04.300Z,99.90
2018-03-21T23:46:31.793Z,99.90
2018-03-21T23:48:59.326Z,99.90
2018-03-21T23:51:26.828Z,99.90
2018-03-21T23:53:55.146Z,99.90
2018-03-21T23:56:22.654Z,99.90
2018-03-21T23:58:50.185Z,99.90
